This is the latest recevied weather packets stored in our database for station/object KC0AFB. If no packets are shown the sender has not sent any weather packets the latest 10 day(s).
| Time | Temp. | Humidity | Pressure | Rain* | Wind** | Luminosity | Snow |
|---|---|---|---|---|---|---|---|
| 1777435705 | 2.22° C | 54% | 1019.3 hPa | 0 mm | - | 0 W/m² | - |
| 1777435401 | 2.78° C | 54% | 1019.3 hPa | 0 mm | - | 0 W/m² | - |
| 1777435096 | 3.33° C | 51% | 1019.3 hPa | 0 mm | - | 0 W/m² | - |
| 1777434792 | 3.33° C | 50% | 1019.1 hPa | 0 mm | - | 0 W/m² | - |
| 1777434491 | 3.33° C | 50% | 1019.2 hPa | 0 mm | - | 0 W/m² | - |
| 1777434189 | 3.89° C | 51% | 1019.2 hPa | 0 mm | - | 0 W/m² | - |
| 1777433886 | 4.44° C | 49% | 1019 hPa | 0 mm | - | 0 W/m² | - |
| 1777433583 | 5° C | 47% | 1019.1 hPa | 0 mm | - | 0 W/m² | - |
| 1777433282 | 4.44° C | 48% | 1019.2 hPa | 0 mm | - | 0 W/m² | - |
| 1777432980 | 4.44° C | 48% | 1019.2 hPa | 0 mm | - | 0 W/m² | - |
| 1777432680 | 4.44° C | 48% | 1019.3 hPa | 0 mm | - | 0 W/m² | - |
| 1777432376 | 3.89° C | 49% | 1019.3 hPa | 0 mm | - | 0 W/m² | - |
| 1777432076 | 3.89° C | 50% | 1019.3 hPa | 0 mm | - | 0 W/m² | - |
| 1777431772 | 3.33° C | 51% | 1019.1 hPa | 0 mm | - | 0 W/m² | - |
| 1777431468 | 3.89° C | 51% | 1019.1 hPa | 0 mm | - | 0 W/m² | - |
| 1777431164 | 4.44° C | 49% | 1019 hPa | 0 mm | - | 0 W/m² | - |
| 1777430859 | 4.44° C | 48% | 1018.9 hPa | 0 mm | - | 0 W/m² | - |
| 1777430557 | 4.44° C | 48% | 1019 hPa | 0 mm | - | 0 W/m² | - |
| 1777430252 | 5° C | 47% | 1018.9 hPa | 0 mm | - | 0 W/m² | - |
| 1777429947 | 5.56° C | 46% | 1018.7 hPa | 0 mm | - | 0 W/m² | - |
| 1777429645 | 5.56° C | 45% | 1019 hPa | 0 mm | - | 0 W/m² | - |
| 1777429341 | 4.44° C | 47% | 1018.9 hPa | 0 mm | - | 0 W/m² | - |
| 1777429041 | 5.56° C | 47% | 1018.7 hPa | 0 mm | - | 0 W/m² | - |
| 1777428737 | 6.11° C | 46% | 1018.7 hPa | 0 mm | - | 0 W/m² | - |
| 1777428434 | 6.11° C | 43% | 1018.6 hPa | 0 mm | - | 0 W/m² | - |
* Rain latest hour (hover to see other rain measurements)
** Current wind speed in m/s (hover to see current wind gust speed)